Redford, Texas
Current Conditions -  °F | °C
As of 5:55 PM on Monday 20 Oct 2014 (Local Time) from KPRS Reporting Station
Scattered Clouds Scattered Clouds  
Wind Chill: 71°   Ceiling: Unl
Heat Index: 71°   Visibility: 10mi
Dew Point: 60°   Wind: 13mph
Humidity: 68%   Direction: 340°NNW
Pressure: 29.97"   Gusts: NA
Location:  29.45°N, 104.19°W
Report Text: KPRS 202255Z AUTO 34011KT 10SM SCT075 SCT100 22/16 A2997 RMK AO2 LTG DSNT N AND NE T02160155
Loading
Personal Weather Stations






























Interactive Weather Map
Tropical Storm Tracking
New forecast layout! Learn more

10-Day Weather Forecast

Advertisements
Track Severe Weather on mobile